Time;durP1;ratioP1;P1;durP2;ratioP2;P2;SDS_P1;SDS_P2;PMS_P1;PMS_P2;Temp;Humidity;BMP_temperature;BMP_pressure;BME280_temperature;BME280_humidity;BME280_pressure;Samples;Min_cycle;Max_cycle;Signal;HPM_P1;HPM_P2
2021/12/24 00:01:14;;;;;;;7.03;2.55;;;;;;;4.68;100.00;99144.31;4944810;29;20035;-68
2021/12/24 00:03:40;;;;;;;2.80;1.80;;;;;;;4.74;100.00;99142.91;4957608;28;20031;-67
2021/12/24 00:06:09;;;;;;;4.68;2.00;;;;;;;4.82;100.00;99141.13;4995676;23;20050;-67
2021/12/24 00:08:36;;;;;;;6.05;2.15;;;;;;;4.67;100.00;99145.41;4993040;28;20038;-67
2021/12/24 00:11:03;;;;;;;3.03;1.95;;;;;;;4.76;100.00;99151.31;4992842;28;20182;-67
2021/12/24 00:13:36;;;;;;;4.22;2.35;;;;;;;4.66;100.00;99154.53;4991162;28;20083;-68
2021/12/24 00:16:10;;;;;;;4.53;1.83;;;;;;;4.63;100.00;99149.16;4975034;28;20046;-67
2021/12/24 00:37:00;;;;;;;6.80;2.22;;;;;;;4.85;100.00;99146.53;4973077;28;20384;-67
2021/12/24 00:39:26;;;;;;;4.10;1.80;;;;;;;4.80;100.00;99149.47;4972733;28;20089;-67
2021/12/24 00:41:52;;;;;;;3.95;2.15;;;;;;;4.86;100.00;99142.72;4969952;28;20118;-68
2021/12/24 00:44:17;;;;;;;2.85;1.90;;;;;;;4.83;100.00;99146.09;4970211;28;20035;-67
2021/12/24 00:46:42;;;;;;;2.95;2.03;;;;;;;4.90;100.00;99148.88;4968485;28;20038;-67
2021/12/24 00:49:08;;;;;;;4.72;2.20;;;;;;;4.78;100.00;99149.03;4972324;28;20455;-67
2021/12/24 00:51:55;;;;;;;7.63;2.42;;;;;;;4.72;100.00;99141.69;4971165;28;20671;-67
2021/12/24 00:57:05;;;;;;;4.75;1.67;;;;;;;4.65;100.00;99139.66;4961271;28;20089;-67
2021/12/24 00:59:30;;;;;;;4.30;1.77;;;;;;;4.71;100.00;99148.91;4977391;28;20490;-68
2021/12/24 01:01:56;;;;;;;3.17;1.70;;;;;;;4.80;100.00;99152.13;4971432;28;20119;-68
2021/12/24 01:04:22;;;;;;;3.95;2.55;;;;;;;4.92;100.00;99151.19;4970325;28;20069;-69
2021/12/24 01:06:47;;;;;;;2.78;1.80;;;;;;;5.06;100.00;99149.56;4958645;28;20041;-67
2021/12/24 01:09:16;;;;;;;4.00;2.05;;;;;;;5.12;100.00;99139.38;4952010;29;20055;-67
2021/12/24 01:11:43;;;;;;;13.70;1.98;;;;;;;5.23;100.00;99146.41;4971595;28;20043;-68
2021/12/24 01:14:08;;;;;;;2.33;1.38;;;;;;;5.29;100.00;99146.88;4964865;28;20029;-67
2021/12/24 01:16:44;;;;;;;2.40;1.55;;;;;;;5.28;100.00;99148.78;4962357;28;20027;-67
2021/12/24 01:19:16;;;;;;;3.53;2.10;;;;;;;5.32;100.00;99157.63;4975533;28;20043;-67
2021/12/24 01:24:36;;;;;;;3.33;1.55;;;;;;;5.24;100.00;99150.66;4962125;28;19914;-67
2021/12/24 01:27:22;;;;;;;4.65;2.45;;;;;;;5.14;100.00;99147.78;4976931;28;20031;-67
2021/12/24 01:30:05;;;;;;;4.72;1.85;;;;;;;5.22;100.00;99152.91;4975244;28;20109;-67
2021/12/24 01:38:25;;;;;;;3.10;1.60;;;;;;;5.14;100.00;99135.22;4970779;28;20476;-68
2021/12/24 01:43:23;;;;;;;3.35;1.70;;;;;;;5.17;100.00;99133.72;4957668;28;20049;-67
2021/12/24 01:45:51;;;;;;;3.42;1.80;;;;;;;5.33;100.00;99127.16;4968665;28;20057;-68
2021/12/24 01:48:17;;;;;;;5.28;1.95;;;;;;;5.28;100.00;99122.09;4967428;28;20049;-67
2021/12/24 01:50:46;;;;;;;3.20;1.98;;;;;;;5.16;100.00;99127.63;4970213;28;20394;-68
2021/12/24 01:53:15;;;;;;;3.88;2.28;;;;;;;5.35;100.00;99116.88;4967882;28;20034;-68
2021/12/24 01:55:44;;;;;;;6.13;2.17;;;;;;;5.32;100.00;99120.25;4968107;28;20043;-67
2021/12/24 01:58:10;;;;;;;4.03;1.85;;;;;;;5.23;100.00;99113.63;4970259;28;20045;-67
2021/12/24 02:00:47;;;;;;;4.53;2.13;;;;;;;5.20;100.00;99117.03;4949715;28;21182;-68
2021/12/24 02:03:13;;;;;;;4.28;2.60;;;;;;;5.43;100.00;99115.88;4981449;28;20109;-68
2021/12/24 02:05:40;;;;;;;3.22;1.90;;;;;;;5.52;100.00;99112.19;4968529;28;20031;-68
2021/12/24 02:08:08;;;;;;;4.22;1.90;;;;;;;5.36;100.00;99109.66;4968477;28;20031;-68
2021/12/24 02:10:34;;;;;;;10.07;2.35;;;;;;;5.30;100.00;99101.16;4964716;28;20034;-68
2021/12/24 02:12:59;;;;;;;2.85;1.42;;;;;;;5.50;100.00;99107.97;4968724;28;20043;-68
2021/12/24 02:29:08;;;;;;;3.10;1.67;;;;;;;5.27;100.00;99083.22;4984335;28;20033;-69
2021/12/24 02:31:34;;;;;;;2.28;1.67;;;;;;;5.26;100.00;99079.00;4971228;28;20034;-69
2021/12/24 02:34:01;;;;;;;4.22;1.52;;;;;;;5.48;100.00;99086.19;4970403;28;20065;-68
2021/12/24 02:36:28;;;;;;;6.63;1.85;;;;;;;5.53;100.00;99076.34;4968766;28;20027;-69
2021/12/24 02:38:54;;;;;;;2.83;1.83;;;;;;;5.62;100.00;99076.84;4969863;28;20035;-70
2021/12/24 02:41:20;;;;;;;2.58;1.35;;;;;;;5.58;100.00;99078.69;4970927;28;20109;-69
2021/12/24 02:43:47;;;;;;;3.15;1.90;;;;;;;5.60;100.00;99079.88;4969316;28;20536;-69
2021/12/24 02:46:24;;;;;;;4.35;2.38;;;;;;;5.56;100.00;99065.72;4955484;28;20046;-68
2021/12/24 02:54:05;;;;;;;2.97;2.10;;;;;;;5.58;100.00;99070.69;4972166;28;20027;-67
2021/12/24 02:56:37;;;;;;;3.58;2.33;;;;;;;5.46;100.00;99071.66;4971439;28;20031;-69
2021/12/24 02:59:13;;;;;;;3.70;1.80;;;;;;;5.53;100.00;99063.78;4956035;28;20039;-68
2021/12/24 03:01:43;;;;;;;3.45;2.15;;;;;;;5.53;100.00;99058.44;4974704;28;20412;-68
2021/12/24 03:04:09;;;;;;;4.88;1.50;;;;;;;5.41;100.00;99053.28;4972443;28;20038;-69
2021/12/24 03:06:38;;;;;;;7.13;1.58;;;;;;;5.52;100.00;99056.88;4972366;28;20116;-68
2021/12/24 03:09:07;;;;;;;3.83;1.55;;;;;;;5.72;100.00;99044.19;4973674;28;20377;-68
2021/12/24 03:11:34;;;;;;;2.28;1.45;;;;;;;5.78;100.00;99045.41;4968760;28;20114;-69
2021/12/24 03:14:00;;;;;;;5.35;1.88;;;;;;;5.67;100.00;99047.19;4973480;28;20034;-68
2021/12/24 03:16:25;;;;;;;2.72;1.60;;;;;;;5.71;100.00;99051.41;4972784;28;20049;-68
2021/12/24 03:18:51;;;;;;;5.07;2.05;;;;;;;5.58;100.00;99054.66;4973110;28;20114;-68
2021/12/24 03:21:22;;;;;;;4.53;1.92;;;;;;;5.60;100.00;99049.75;4972419;28;20046;-68
2021/12/24 03:26:39;;;;;;;3.35;1.92;;;;;;;5.92;100.00;99065.06;4979950;28;20047;-68
2021/12/24 03:29:10;;;;;;;3.90;1.85;;;;;;;5.74;100.00;99065.97;4989464;28;20031;-67
2021/12/24 03:31:40;;;;;;;4.82;2.00;;;;;;;5.94;100.00;99062.81;4972340;28;20045;-68
2021/12/24 03:34:07;;;;;;;3.08;1.65;;;;;;;5.82;100.00;99057.69;4969177;28;20038;-69
2021/12/24 03:36:33;;;;;;;3.95;2.15;;;;;;;5.91;100.00;99062.78;4972971;28;20082;-68
2021/12/24 03:38:59;;;;;;;3.45;1.75;;;;;;;6.02;100.00;99058.34;4973189;28;20756;-69
2021/12/24 03:41:26;;;;;;;2.72;1.63;;;;;;;5.92;100.00;99045.63;4971621;28;20043;-69
2021/12/24 03:43:53;;;;;;;1.33;1.20;;;;;;;5.96;100.00;99051.78;4972007;28;20038;-69
2021/12/24 03:46:36;;;;;;;2.15;1.23;;;;;;;5.79;100.00;99041.63;4973083;28;20066;-67
2021/12/24 03:49:06;;;;;;;2.53;1.40;;;;;;;5.64;100.00;99029.97;4970333;28;20455;-66
2021/12/24 03:56:43;;;;;;;3.00;1.42;;;;;;;5.75;100.00;99022.13;4962380;28;20034;-68
2021/12/24 03:59:19;;;;;;;1.63;1.40;;;;;;;5.96;100.00;99017.06;4971923;28;20031;-68
2021/12/24 04:02:04;;;;;;;2.42;1.67;;;;;;;5.91;100.00;99006.69;4973280;28;20050;-68
2021/12/24 04:04:36;;;;;;;2.10;1.38;;;;;;;6.05;100.00;99018.31;4972861;28;20074;-67
2021/12/24 04:07:14;;;;;;;2.28;1.52;;;;;;;6.13;100.00;99024.50;4972444;28;20045;-68
2021/12/24 04:12:43;;;;;;;4.75;1.27;;;;;;;6.13;100.00;99030.63;4967685;28;20105;-68
2021/12/24 04:15:09;;;;;;;3.33;1.67;;;;;;;6.13;100.00;99033.28;4971943;28;20035;-68
2021/12/24 04:17:38;;;;;;;2.35;1.42;;;;;;;6.04;100.00;99038.13;4971852;28;20022;-66
2021/12/24 04:25:28;;;;;;;2.53;1.27;;;;;;;6.01;100.00;99041.53;4957235;28;20030;-66
2021/12/24 04:27:57;;;;;;;3.83;2.00;;;;;;;6.05;100.00;99047.69;4962298;28;20049;-69
2021/12/24 04:30:29;;;;;;;1.73;1.27;;;;;;;6.13;100.00;99038.63;4981940;28;20031;-68
2021/12/24 04:33:02;;;;;;;2.80;1.65;;;;;;;6.23;100.00;99045.22;4964056;28;20495;-68
2021/12/24 04:51:46;;;;;;;4.15;1.67;;;;;;;6.48;100.00;99069.56;4965756;28;20475;-67
2021/12/24 05:06:06;;;;;;;5.20;2.08;;;;;;;6.26;100.00;99073.88;4968756;28;20480;-67
2021/12/24 05:10:37;;;;;;;2.63;1.75;;;;;;;6.38;100.00;99065.63;4970930;28;20050;-67
2021/12/24 05:13:09;;;;;;;1.67;1.25;;;;;;;6.48;100.00;99066.88;4966212;28;20069;-66
2021/12/24 05:16:02;;;;;;;2.42;1.63;;;;;;;6.36;100.00;99074.03;4971091;28;20073;-67
2021/12/24 05:21:45;;;;;;;2.78;1.88;;;;;;;6.57;100.00;99062.00;4967047;28;20079;-67
2021/12/24 05:24:14;;;;;;;3.47;1.70;;;;;;;6.45;100.00;99065.69;4970045;28;20129;-66
2021/12/24 05:26:43;;;;;;;3.90;1.60;;;;;;;6.52;100.00;99065.78;4957875;28;20039;-66
2021/12/24 05:29:08;;;;;;;5.43;1.45;;;;;;;6.57;100.00;99076.16;4979680;28;20035;-67
2021/12/24 05:31:34;;;;;;;3.20;1.60;;;;;;;6.63;100.00;99077.34;4976789;28;20034;-67
2021/12/24 05:34:01;;;;;;;5.03;2.55;;;;;;;6.62;100.00;99067.03;4962313;28;20034;-67
2021/12/24 05:36:27;;;;;;;3.42;1.80;;;;;;;6.66;100.00;99081.97;4956918;28;20050;-66
2021/12/24 05:38:52;;;;;;;6.20;1.92;;;;;;;6.70;100.00;99082.75;4970751;28;20038;-66
2021/12/24 05:41:21;;;;;;;2.72;1.55;;;;;;;6.66;100.00;99078.53;4972093;28;20123;-66
2021/12/24 05:43:48;;;;;;;3.28;2.00;;;;;;;6.67;100.00;99094.22;4965934;28;20097;-66
2021/12/24 05:46:13;;;;;;;5.00;1.80;;;;;;;6.59;100.00;99081.91;4969563;28;20066;-65
2021/12/24 05:48:46;;;;;;;10.02;2.58;;;;;;;6.53;100.00;99074.56;4970575;28;20039;-66
2021/12/24 05:51:13;;;;;;;2.42;1.77;;;;;;;6.53;100.00;99067.31;4970095;28;20051;-66
2021/12/24 05:54:04;;;;;;;3.08;1.70;;;;;;;6.55;100.00;99078.41;4968542;28;20054;-67
2021/12/24 05:56:32;;;;;;;4.05;2.60;;;;;;;6.61;100.00;99078.84;4969672;28;20042;-66
2021/12/24 05:59:10;;;;;;;1.92;1.20;;;;;;;6.53;100.00;99070.00;4970243;28;20089;-66
2021/12/24 06:01:36;;;;;;;3.28;1.60;;;;;;;6.64;100.00;99084.22;4970533;28;20622;-67
2021/12/24 06:04:01;;;;;;;2.58;1.30;;;;;;;6.60;100.00;99080.75;4970637;28;20480;-67
2021/12/24 06:06:30;;;;;;;3.10;1.60;;;;;;;6.56;100.00;99089.88;4993009;23;20105;-67
2021/12/24 06:08:56;;;;;;;2.97;1.70;;;;;;;6.55;100.00;99089.09;4991525;28;20100;-67
2021/12/24 06:11:21;;;;;;;2.03;1.40;;;;;;;6.60;100.00;99082.66;4990932;28;20498;-67
2021/12/24 06:13:51;;;;;;;2.20;1.55;;;;;;;6.63;100.00;99088.06;4989754;28;20034;-68
2021/12/24 06:16:18;;;;;;;4.00;1.95;;;;;;;6.66;100.00;99079.28;4976624;28;20049;-68
2021/12/24 06:18:43;;;;;;;5.55;1.75;;;;;;;6.63;100.00;99080.03;4974836;28;20491;-67
2021/12/24 06:21:09;;;;;;;3.58;2.22;;;;;;;6.60;100.00;99080.75;4975494;28;20101;-67
2021/12/24 06:23:37;;;;;;;4.97;1.83;;;;;;;6.49;100.00;99087.13;4966322;28;20051;-66
2021/12/24 06:26:03;;;;;;;2.45;1.52;;;;;;;6.59;100.00;99083.78;4972226;28;20085;-66
2021/12/24 06:28:29;;;;;;;2.45;1.33;;;;;;;6.49;100.00;99090.56;4975267;28;20469;-66
2021/12/24 06:30:55;;;;;;;2.38;1.38;;;;;;;6.57;100.00;99086.84;4975314;28;20109;-66
2021/12/24 06:33:21;;;;;;;2.15;1.60;;;;;;;6.53;100.00;99083.34;4959418;28;20041;-66
2021/12/24 06:35:46;;;;;;;3.15;1.83;;;;;;;6.59;100.00;99091.81;4974662;28;20121;-66
2021/12/24 06:38:13;;;;;;;2.38;1.63;;;;;;;6.49;100.00;99093.25;4975360;28;20082;-66
2021/12/24 06:40:38;;;;;;;3.08;1.45;;;;;;;6.56;100.00;99095.22;4967128;28;20035;-66
2021/12/24 06:43:07;;;;;;;1.70;1.23;;;;;;;6.57;100.00;99110.91;4970340;28;20034;-67
2021/12/24 06:45:33;;;;;;;2.63;1.25;;;;;;;6.52;100.00;99103.22;4974298;28;20035;-67
2021/12/24 06:48:00;;;;;;;3.58;1.38;;;;;;;6.49;100.00;99097.81;4974762;28;20046;-66
2021/12/24 06:50:26;;;;;;;1.83;1.20;;;;;;;6.47;100.00;99106.19;4969055;28;20034;-66
2021/12/24 06:52:52;;;;;;;1.40;0.88;;;;;;;6.49;100.00;99101.25;4974369;28;20134;-66
2021/12/24 06:55:18;;;;;;;1.35;0.80;;;;;;;6.35;100.00;99103.78;4974322;28;20090;-66
2021/12/24 06:57:45;;;;;;;5.05;0.93;;;;;;;6.36;100.00;99103.44;4972599;28;20387;-66
2021/12/24 07:00:15;;;;;;;0.85;0.70;;;;;;;6.27;100.00;99108.25;4971604;28;20037;-67
2021/12/24 07:02:42;;;;;;;0.68;0.68;;;;;;;6.19;100.00;99111.97;4971710;28;20045;-67
2021/12/24 07:05:08;;;;;;;0.88;0.80;;;;;;;6.17;100.00;99110.81;4970841;28;20486;-66
2021/12/24 07:07:33;;;;;;;0.95;0.82;;;;;;;6.06;100.00;99110.69;4956076;28;20042;-67
2021/12/24 07:09:59;;;;;;;1.23;0.93;;;;;;;6.07;100.00;99120.25;4964485;28;20035;-66
2021/12/24 07:12:24;;;;;;;1.00;0.75;;;;;;;6.14;100.00;99127.56;4974655;28;20043;-67
2021/12/24 07:14:50;;;;;;;1.08;0.60;;;;;;;6.15;100.00;99129.91;4972862;28;20030;-67
2021/12/24 07:17:16;;;;;;;0.93;0.75;;;;;;;5.96;100.00;99123.91;4964027;28;20387;-67
2021/12/24 07:19:41;;;;;;;0.50;0.47;;;;;;;5.85;100.00;99122.97;4964418;28;20046;-68
2021/12/24 07:22:10;;;;;;;2.15;1.23;;;;;;;6.02;100.00;99133.16;4974835;28;20056;-67
2021/12/24 07:24:36;;;;;;;1.67;0.95;;;;;;;5.95;100.00;99128.47;4965352;28;20042;-68
2021/12/24 07:27:02;;;;;;;2.53;0.90;;;;;;;5.89;100.00;99129.13;4956809;28;20403;-68
2021/12/24 07:29:28;;;;;;;1.67;0.82;;;;;;;5.74;100.00;99124.69;4963790;28;20118;-66
2021/12/24 07:31:54;;;;;;;2.20;0.70;;;;;;;5.72;100.00;99132.31;4956710;28;20551;-69
2021/12/24 07:34:19;;;;;;;0.90;0.77;;;;;;;5.56;100.00;99140.47;4964482;28;20038;-68
2021/12/24 07:36:45;;;;;;;2.20;0.70;;;;;;;5.68;100.00;99144.81;4972430;28;20491;-66
2021/12/24 07:39:11;;;;;;;1.30;1.20;;;;;;;5.53;100.00;99145.75;4965911;28;20031;-66
2021/12/24 07:41:36;;;;;;;1.65;1.02;;;;;;;5.49;100.00;99153.72;4960058;28;20053;-67
2021/12/24 07:44:06;;;;;;;0.65;0.50;;;;;;;5.42;100.00;99161.59;4969593;28;20082;-67
2021/12/24 07:46:36;;;;;;;1.98;0.90;;;;;;;5.39;100.00;99164.97;4968399;28;20570;-67
2021/12/24 07:49:12;;;;;;;1.83;0.80;;;;;;;5.57;100.00;99166.03;4973596;28;20045;-66
2021/12/24 07:54:22;;;;;;;1.02;0.73;;;;;;;5.56;100.00;99167.16;4962482;28;20122;-69
2021/12/24 07:56:48;;;;;;;0.98;0.88;;;;;;;5.32;100.00;99181.63;4964422;28;20049;-67
2021/12/24 07:59:15;;;;;;;3.10;1.38;;;;;;;5.32;100.00;99170.97;4966053;28;20031;-67
2021/12/24 08:01:43;;;;;;;0.65;0.60;;;;;;;5.27;100.00;99173.16;4963560;28;20099;-68
2021/12/24 08:04:09;;;;;;;2.25;1.25;;;;;;;5.16;100.00;99183.66;4968488;28;20533;-67
2021/12/24 08:06:34;;;;;;;1.52;1.05;;;;;;;5.12;100.00;99182.81;4962276;28;20160;-68
2021/12/24 08:08:59;;;;;;;0.95;0.77;;;;;;;5.17;100.00;99179.06;4962207;28;20066;-67
2021/12/24 08:11:25;;;;;;;1.50;0.88;;;;;;;5.21;100.00;99169.25;4962903;28;20104;-67
2021/12/24 08:13:50;;;;;;;2.45;1.08;;;;;;;5.19;100.00;99169.59;4958925;28;20038;-67
2021/12/24 08:16:16;;;;;;;1.48;0.90;;;;;;;5.16;100.00;99172.22;4963440;28;20157;-67
2021/12/24 08:18:43;;;;;;;2.28;1.00;;;;;;;5.08;100.00;99178.53;4961128;28;20097;-68
2021/12/24 08:21:10;;;;;;;1.13;0.98;;;;;;;5.19;100.00;99185.59;4957104;28;20117;-68
2021/12/24 08:23:35;;;;;;;2.42;1.42;;;;;;;5.11;100.00;99172.50;4957077;28;20089;-67
2021/12/24 08:26:01;;;;;;;1.40;1.30;;;;;;;5.12;100.00;99185.50;4958583;28;20059;-67
2021/12/24 08:28:27;;;;;;;4.63;1.13;;;;;;;5.06;100.00;99188.78;4962451;28;20034;-68
2021/12/24 08:30:54;;;;;;;2.58;1.42;;;;;;;5.05;100.00;99189.94;4975191;28;20034;-67
2021/12/24 08:33:20;;;;;;;2.20;1.15;;;;;;;4.99;100.00;99186.00;4978584;28;20031;-67
2021/12/24 08:35:45;;;;;;;1.95;1.10;;;;;;;4.96;100.00;99184.03;4965238;28;20492;-67
2021/12/24 08:38:11;;;;;;;1.95;1.08;;;;;;;4.95;100.00;99188.63;4981043;28;20585;-67
2021/12/24 08:40:37;;;;;;;2.10;1.25;;;;;;;4.91;100.00;99195.78;4970860;28;20137;-67
2021/12/24 08:43:02;;;;;;;1.38;0.93;;;;;;;4.95;100.00;99183.28;4979493;28;20089;-66
2021/12/24 08:45:28;;;;;;;1.77;1.13;;;;;;;4.91;100.00;99182.44;4984906;28;20431;-67
2021/12/24 08:47:53;;;;;;;1.88;1.25;;;;;;;4.93;100.00;99195.41;4976992;28;20047;-66
2021/12/24 08:50:19;;;;;;;2.88;1.17;;;;;;;4.88;100.00;99203.72;4975215;28;20076;-67
2021/12/24 08:52:46;;;;;;;2.42;1.15;;;;;;;4.94;100.00;99203.06;4967370;28;20039;-68
2021/12/24 08:55:13;;;;;;;1.30;0.55;;;;;;;5.04;100.00;99199.81;4967325;28;20026;-67
2021/12/24 08:57:40;;;;;;;1.75;1.00;;;;;;;5.19;100.00;99190.16;4960848;28;20088;-68
2021/12/24 09:00:10;;;;;;;2.70;1.02;;;;;;;5.05;100.00;99196.00;4968584;28;20018;-69
2021/12/24 09:02:38;;;;;;;2.05;1.23;;;;;;;5.19;100.00;99185.59;4975306;28;20527;-66
2021/12/24 09:05:09;;;;;;;0.98;0.90;;;;;;;5.08;100.00;99183.88;4980561;28;20038;-67
2021/12/24 09:07:36;;;;;;;1.10;1.00;;;;;;;4.95;100.00;99180.63;4978090;28;20050;-67
2021/12/24 09:10:03;;;;;;;2.38;1.25;;;;;;;5.04;100.00;99183.03;4969163;28;20043;-69
2021/12/24 09:12:29;;;;;;;1.02;0.88;;;;;;;4.98;100.00;99185.22;4969341;28;20082;-68
2021/12/24 09:14:55;;;;;;;1.45;0.95;;;;;;;4.94;100.00;99195.06;4968862;28;20397;-67
2021/12/24 09:17:21;;;;;;;3.42;1.55;;;;;;;4.95;100.00;99196.63;4960351;28;20035;-69
2021/12/24 09:19:50;;;;;;;1.77;1.02;;;;;;;5.09;100.00;99201.44;4963916;28;20689;-65
2021/12/24 09:22:18;;;;;;;2.25;0.77;;;;;;;5.14;100.00;99187.81;4957885;28;20043;-68
2021/12/24 09:24:49;;;;;;;0.90;0.68;;;;;;;4.94;100.00;99184.38;4964850;28;20059;-69
2021/12/24 09:27:15;;;;;;;1.02;0.57;;;;;;;5.07;100.00;99195.69;4962325;28;20050;-66
2021/12/24 09:29:42;;;;;;;3.92;1.40;;;;;;;5.07;100.00;99207.09;4964507;28;20027;-67
2021/12/24 09:32:08;;;;;;;1.60;1.17;;;;;;;5.11;100.00;99218.63;4981462;28;20391;-67
2021/12/24 09:34:34;;;;;;;1.65;1.17;;;;;;;4.98;100.00;99217.22;4980449;28;20557;-67
2021/12/24 09:36:59;;;;;;;1.63;0.85;;;;;;;5.12;100.00;99219.38;4975161;28;20113;-66
2021/12/24 09:39:25;;;;;;;2.05;1.70;;;;;;;5.18;100.00;99224.09;4980012;28;20116;-67
2021/12/24 09:41:50;;;;;;;1.80;0.88;;;;;;;5.19;100.00;99228.28;4986820;28;20526;-69
2021/12/24 09:44:16;;;;;;;1.55;0.88;;;;;;;5.01;100.00;99237.88;4977591;28;20039;-68
2021/12/24 09:46:43;;;;;;;5.68;2.00;;;;;;;5.08;100.00;99248.69;4968110;28;20038;-67
2021/12/24 09:49:11;;;;;;;2.33;1.30;;;;;;;4.99;100.00;99255.34;4979892;28;20121;-66
2021/12/24 09:51:38;;;;;;;0.82;0.77;;;;;;;5.02;100.00;99255.41;4966542;28;20558;-64
2021/12/24 09:54:10;;;;;;;2.15;1.15;;;;;;;5.06;100.00;99266.94;4977996;28;20042;-66
2021/12/24 09:56:36;;;;;;;2.88;1.67;;;;;;;4.97;100.00;99265.59;4972141;28;20213;-68
2021/12/24 09:59:02;;;;;;;3.85;1.50;;;;;;;5.00;100.00;99275.56;4977206;28;20153;-68
2021/12/24 10:01:32;;;;;;;1.30;1.05;;;;;;;4.91;100.00;99273.13;4971139;28;20075;-69
2021/12/24 10:04:06;;;;;;;2.20;1.42;;;;;;;4.80;100.00;99268.69;4970697;28;20034;-68
2021/12/24 10:06:32;;;;;;;1.45;0.90;;;;;;;4.70;100.00;99271.91;4971408;28;20042;-69
2021/12/24 10:09:09;;;;;;;2.72;1.50;;;;;;;4.73;100.00;99260.53;4964116;28;20030;-68
2021/12/24 10:11:47;;;;;;;3.22;1.25;;;;;;;4.59;100.00;99269.78;4970303;28;20041;-67
2021/12/24 10:14:13;;;;;;;4.97;1.48;;;;;;;4.69;100.00;99265.00;4962443;28;20053;-68
2021/12/24 10:16:44;;;;;;;2.15;1.48;;;;;;;4.60;100.00;99262.56;4969340;28;20090;-69
2021/12/24 10:19:10;;;;;;;1.27;1.13;;;;;;;4.63;100.00;99264.53;4977258;28;20493;-68
2021/12/24 10:21:35;;;;;;;3.13;1.15;;;;;;;4.70;100.00;99286.00;4979720;28;20378;-69
2021/12/24 10:24:04;;;;;;;4.00;1.58;;;;;;;4.61;100.00;99285.41;4966164;28;20031;-68
2021/12/24 10:26:31;;;;;;;2.70;0.93;;;;;;;4.63;100.00;99277.84;4966114;28;20043;-69
2021/12/24 10:29:08;;;;;;;2.08;1.48;;;;;;;4.44;100.00;99275.16;4967401;28;20023;-67
2021/12/24 10:31:55;;;;;;;2.67;1.60;;;;;;;4.21;100.00;99277.69;4953379;28;20055;-67
2021/12/24 10:34:30;;;;;;;1.00;0.95;;;;;;;4.28;100.00;99290.38;4959458;28;20066;-67
2021/12/24 10:37:01;;;;;;;1.13;0.82;;;;;;;4.24;100.00;99292.97;4961894;28;20060;-68
2021/12/24 10:39:35;;;;;;;1.55;1.00;;;;;;;4.44;100.00;99296.47;4963282;28;20404;-67
2021/12/24 10:42:05;;;;;;;1.10;1.00;;;;;;;4.52;100.00;99292.84;4956396;28;20051;-67
2021/12/24 10:44:34;;;;;;;2.53;1.33;;;;;;;4.28;100.00;99288.50;4953983;28;20430;-67
2021/12/24 10:46:59;;;;;;;1.67;1.02;;;;;;;4.27;100.00;99299.50;4963972;28;20077;-68
2021/12/24 10:50:13;;;;;;;1.27;1.02;;;;;;;4.41;100.00;99294.50;4970286;28;20095;-67
2021/12/24 10:54:52;;;;;;;2.72;1.60;;;;;;;4.18;100.00;99291.69;4958336;28;20051;-68
2021/12/24 10:57:19;;;;;;;1.83;1.02;;;;;;;4.41;100.00;99295.25;4956681;28;20034;-67
2021/12/24 10:59:49;;;;;;;1.60;1.10;;;;;;;4.41;100.00;99286.53;4958032;28;20038;-67
2021/12/24 11:02:14;;;;;;;1.08;0.98;;;;;;;4.32;100.00;99289.34;4965714;28;20082;-67
2021/12/24 11:04:40;;;;;;;3.20;1.95;;;;;;;4.19;100.00;99287.94;4968401;28;20474;-68
2021/12/24 11:07:36;;;;;;;1.80;1.10;;;;;;;4.40;100.00;99290.28;4973778;28;20085;-68
2021/12/24 11:10:21;;;;;;;3.22;1.75;;;;;;;4.34;100.00;99299.66;4975211;28;20583;-67
2021/12/24 11:13:14;;;;;;;1.25;1.05;;;;;;;4.28;100.00;99298.38;4965634;28;20039;-67
2021/12/24 11:15:51;;;;;;;2.15;1.30;;;;;;;4.25;100.00;99294.53;4965881;28;20093;-66
2021/12/24 11:18:28;;;;;;;2.30;1.15;;;;;;;4.20;100.00;99296.69;4967069;28;20125;-68
2021/12/24 11:21:04;;;;;;;15.18;1.55;;;;;;;4.14;100.00;99287.41;4981406;28;20049;-67
2021/12/24 11:23:33;;;;;;;1.65;1.17;;;;;;;4.20;100.00;99275.38;4972547;28;20050;-67
2021/12/24 11:26:05;;;;;;;1.63;1.15;;;;;;;4.21;100.00;99283.03;4971919;28;20035;-66
2021/12/24 11:28:33;;;;;;;1.92;1.15;;;;;;;4.29;100.00;99283.97;4966725;28;20038;-67
2021/12/24 11:31:22;;;;;;;5.65;1.60;;;;;;;4.23;100.00;99282.69;4974113;28;20065;-67
2021/12/24 11:33:51;;;;;;;1.98;1.00;;;;;;;4.38;100.00;99295.97;4962570;28;20511;-67
2021/12/24 11:36:20;;;;;;;3.13;1.65;;;;;;;4.43;100.00;99303.69;4975030;28;20065;-67
2021/12/24 11:38:55;;;;;;;1.85;1.55;;;;;;;4.46;100.00;99308.34;4977096;28;20110;-68
2021/12/24 11:41:25;;;;;;;2.75;1.30;;;;;;;4.68;100.00;99319.47;4968351;28;20051;-68
2021/12/24 11:43:52;;;;;;;3.60;1.42;;;;;;;4.65;100.00;99328.13;4970037;28;20042;-66
2021/12/24 11:46:22;;;;;;;2.92;1.35;;;;;;;4.62;100.00;99329.63;4971389;28;20414;-68
2021/12/24 11:48:51;;;;;;;1.83;1.57;;;;;;;4.48;100.00;99329.31;4964928;28;20031;-67
2021/12/24 11:51:21;;;;;;;0.73;0.73;;;;;;;4.47;100.00;99320.53;4962448;28;20795;-67
2021/12/24 11:53:48;;;;;;;1.85;1.05;;;;;;;4.46;100.00;99329.66;4962674;28;20035;-67
2021/12/24 11:56:16;;;;;;;5.22;2.33;;;;;;;4.37;100.00;99331.75;4967368;28;20681;-68
2021/12/24 11:58:53;;;;;;;4.13;1.42;;;;;;;4.34;100.00;99335.09;4962850;28;20154;-68
2021/12/24 12:01:25;;;;;;;2.35;1.48;;;;;;;4.41;100.00;99331.81;4976861;28;20112;-68
2021/12/24 12:03:55;;;;;;;1.77;1.20;;;;;;;4.41;100.00;99331.81;4975580;28;20487;-68
2021/12/24 12:06:24;;;;;;;4.47;1.98;;;;;;;4.43;100.00;99343.66;4977466;28;20045;-67
2021/12/24 12:09:03;;;;;;;4.75;2.10;;;;;;;4.35;100.00;99349.19;4975870;28;20061;-67
2021/12/24 12:11:31;;;;;;;1.90;1.48;;;;;;;4.45;100.00;99351.31;4990227;28;20030;-67
2021/12/24 12:14:17;;;;;;;4.70;1.50;;;;;;;4.50;100.00;99354.50;4974495;28;20030;-67
2021/12/24 12:16:42;;;;;;;2.05;1.50;;;;;;;4.33;100.00;99354.09;4970549;28;20057;-67
2021/12/24 12:19:16;;;;;;;6.65;1.70;;;;;;;4.45;100.00;99362.75;4976511;28;20032;-67
2021/12/24 12:24:59;;;;;;;3.75;1.60;;;;;;;4.30;100.00;99365.41;4975845;28;20066;-67
2021/12/24 12:27:48;;;;;;;4.93;1.57;;;;;;;4.45;100.00;99369.97;4962500;28;20109;-67
2021/12/24 12:30:18;;;;;;;6.10;1.88;;;;;;;4.46;100.00;99364.28;4971875;28;20608;-66
2021/12/24 12:32:43;;;;;;;4.32;2.33;;;;;;;4.45;100.00;99369.97;4972171;28;20038;-66
2021/12/24 12:35:10;;;;;;;4.78;2.20;;;;;;;4.29;100.00;99374.53;4953889;28;20050;-66
2021/12/24 12:37:46;;;;;;;8.75;2.47;;;;;;;4.42;100.00;99378.66;4954058;28;20038;-66
2021/12/24 12:40:11;;;;;;;5.10;2.05;;;;;;;4.43;100.00;99374.88;4954364;28;20047;-67
2021/12/24 12:43:08;;;;;;;2.85;1.75;;;;;;;4.37;100.00;99387.69;4953470;28;20047;-67
2021/12/24 12:45:37;;;;;;;4.47;2.30;;;;;;;4.44;100.00;99392.41;4952157;28;20039;-66
2021/12/24 12:48:07;;;;;;;3.30;1.48;;;;;;;4.23;100.00;99391.88;4962423;28;20045;-66
2021/12/24 12:50:34;;;;;;;4.22;2.10;;;;;;;4.21;100.00;99396.78;4972594;28;20030;-67
2021/12/24 12:53:21;;;;;;;4.18;2.33;;;;;;;4.23;100.00;99397.22;4972345;28;20102;-66
2021/12/24 12:55:47;;;;;;;4.55;2.45;;;;;;;4.38;100.00;99397.22;4965721;28;20175;-67
2021/12/24 12:58:26;;;;;;;4.22;1.80;;;;;;;4.25;100.00;99398.44;4954378;28;20114;-67
2021/12/24 13:01:10;;;;;;;2.85;1.60;;;;;;;4.30;100.00;99394.72;4972480;28;20043;-66
2021/12/24 13:03:57;;;;;;;4.82;2.25;;;;;;;4.29;100.00;99404.63;4972045;28;20039;-65
2021/12/24 13:06:23;;;;;;;4.43;1.80;;;;;;;4.36;100.00;99406.66;4965692;28;20488;-66
2021/12/24 13:08:49;;;;;;;3.40;2.13;;;;;;;4.23;100.00;99421.97;4953564;28;20069;-67
2021/12/24 13:11:22;;;;;;;4.78;1.95;;;;;;;4.29;100.00;99427.81;4953478;28;20077;-67
2021/12/24 13:13:56;;;;;;;4.63;2.33;;;;;;;4.33;100.00;99424.13;4953258;28;20054;-67
2021/12/24 13:16:43;;;;;;;3.17;1.92;;;;;;;4.45;100.00;99432.03;4953853;28;20738;-67
2021/12/24 13:24:20;;;;;;;4.13;1.55;;;;;;;4.21;100.00;99452.72;4970687;28;20043;-67
2021/12/24 13:26:48;;;;;;;4.78;1.92;;;;;;;4.23;100.00;99461.94;4965043;28;20043;-67
2021/12/24 13:29:16;;;;;;;3.55;1.58;;;;;;;4.15;100.00;99476.19;4970380;28;20039;-66
2021/12/24 13:31:50;;;;;;;5.22;2.10;;;;;;;4.09;100.00;99466.09;4968180;28;20031;-68
2021/12/24 13:34:16;;;;;;;4.93;2.85;;;;;;;4.04;100.00;99475.13;4974635;28;20049;-68
2021/12/24 13:36:42;;;;;;;5.03;2.28;;;;;;;4.07;100.00;99473.66;4972407;28;20038;-67
2021/12/24 13:39:17;;;;;;;3.80;1.98;;;;;;;4.22;100.00;99465.69;4972725;28;20085;-67